createdAt,value
2019-02-23T00:01:30.963Z,7.37
2019-02-23T00:03:59.102Z,7.10
2019-02-23T00:06:30.114Z,7.53
2019-02-23T00:08:56.995Z,7.17
2019-02-23T00:11:25.457Z,7.80
2019-02-23T00:13:53.516Z,8.03
2019-02-23T00:16:21.602Z,7.50
2019-02-23T00:18:49.649Z,7.37
2019-02-23T00:21:17.705Z,7.10
2019-02-23T00:23:45.762Z,7.47
2019-02-23T00:26:13.805Z,8.23
2019-02-23T00:28:41.874Z,7.67
2019-02-23T00:31:09.914Z,7.37
2019-02-23T00:33:37.974Z,8.35
2019-02-23T00:36:06.018Z,7.50
2019-02-23T00:38:34.072Z,8.17
2019-02-23T00:41:02.139Z,7.87
2019-02-23T00:43:30.197Z,7.93
2019-02-23T00:45:58.230Z,7.63
2019-02-23T00:48:26.291Z,7.20
2019-02-23T00:50:54.362Z,7.40
2019-02-23T00:53:22.431Z,7.73
2019-02-23T00:55:50.478Z,7.97
2019-02-23T00:58:18.542Z,7.70
2019-02-23T01:00:46.602Z,7.83
2019-02-23T01:03:14.659Z,8.00
2019-02-23T01:05:42.738Z,8.40
2019-02-23T01:08:10.783Z,8.37
2019-02-23T01:10:38.830Z,8.30
2019-02-23T01:13:06.893Z,7.53
2019-02-23T01:15:34.946Z,8.30
2019-02-23T01:18:03.042Z,8.67
2019-02-23T01:20:31.278Z,7.73
2019-02-23T01:22:59.324Z,8.00
2019-02-23T01:25:27.374Z,7.70
2019-02-23T01:27:55.466Z,8.33
2019-02-23T01:30:23.509Z,8.20
2019-02-23T01:32:51.558Z,7.70
2019-02-23T01:35:19.654Z,8.43
2019-02-23T01:37:47.698Z,8.27
2019-02-23T01:40:15.758Z,8.17
2019-02-23T01:42:43.811Z,8.27
2019-02-23T01:45:11.942Z,8.43
2019-02-23T01:47:39.995Z,8.17
2019-02-23T01:50:08.048Z,8.00
2019-02-23T01:52:36.139Z,7.63
2019-02-23T01:55:04.854Z,8.07
2019-02-23T01:57:32.919Z,8.37
2019-02-23T02:00:00.964Z,8.70
2019-02-23T02:02:29.027Z,8.77
2019-02-23T02:04:57.085Z,8.50
2019-02-23T02:07:25.124Z,7.90
2019-02-23T02:09:54.030Z,8.63
2019-02-23T02:12:22.165Z,8.87
2019-02-23T02:14:50.225Z,8.00
2019-02-23T02:17:18.281Z,7.70
2019-02-23T02:19:46.342Z,8.60
2019-02-23T02:22:14.427Z,8.13
2019-02-23T02:24:43.039Z,9.00
2019-02-23T02:27:11.067Z,8.60
2019-02-23T02:29:39.115Z,8.67
2019-02-23T02:32:07.179Z,8.83
2019-02-23T02:34:35.222Z,8.80
2019-02-23T02:37:03.297Z,8.90
2019-02-23T02:39:31.356Z,8.00
2019-02-23T02:41:59.410Z,9.03
2019-02-23T02:44:27.470Z,8.90
2019-02-23T02:46:55.514Z,9.53
2019-02-23T02:49:23.582Z,9.00
2019-02-23T02:51:52.384Z,9.30
2019-02-23T02:54:20.437Z,9.13
2019-02-23T02:56:48.470Z,8.80
2019-02-23T02:59:16.526Z,9.20
2019-02-23T03:01:44.578Z,8.87
2019-02-23T03:04:12.632Z,10.13
2019-02-23T03:06:40.682Z,9.73
2019-02-23T03:09:10.594Z,9.63
2019-02-23T03:11:38.647Z,10.30
2019-02-23T03:14:06.709Z,10.40
2019-02-23T03:16:34.831Z,10.03
2019-02-23T03:19:02.890Z,10.87
2019-02-23T03:21:30.955Z,9.60
2019-02-23T03:23:59.008Z,9.43
2019-02-23T03:26:27.069Z,10.57
2019-02-23T03:28:55.118Z,10.13
2019-02-23T03:31:23.169Z,10.17
2019-02-23T03:33:51.254Z,10.43
2019-02-23T03:36:19.310Z,11.30
2019-02-23T03:38:47.360Z,10.33
2019-02-23T03:41:15.426Z,10.80
2019-02-23T03:43:43.479Z,10.53
2019-02-23T03:46:11.567Z,10.53
2019-02-23T03:48:39.622Z,11.17
2019-02-23T03:51:07.667Z,10.80
2019-02-23T03:53:35.735Z,10.17
2019-02-23T03:56:04.293Z,10.17
2019-02-23T03:58:32.410Z,11.30
2019-02-23T04:01:00.465Z,10.43
2019-02-23T04:03:28.528Z,10.80
2019-02-23T04:05:56.578Z,11.13
2019-02-23T04:08:24.658Z,11.10
2019-02-23T04:10:52.702Z,11.00
2019-02-23T04:13:20.756Z,12.20
2019-02-23T04:15:48.826Z,11.63
2019-02-23T04:18:16.876Z,12.53
2019-02-23T04:20:44.931Z,11.60
2019-02-23T04:23:12.998Z,12.07
2019-02-23T04:25:41.052Z,12.10
2019-02-23T04:28:09.139Z,18.60
2019-02-23T04:30:37.208Z,12.53
2019-02-23T04:33:05.261Z,12.33
2019-02-23T04:35:33.319Z,12.27
2019-02-23T04:38:01.367Z,12.17
2019-02-23T04:40:29.440Z,12.23
2019-02-23T04:42:57.494Z,11.90
2019-02-23T04:45:25.547Z,12.00
2019-02-23T04:47:53.615Z,12.03
2019-02-23T04:50:21.671Z,11.33
2019-02-23T04:52:49.735Z,12.40
2019-02-23T04:55:17.812Z,11.77
2019-02-23T04:57:45.856Z,12.10
2019-02-23T05:00:14.487Z,12.00
2019-02-23T05:02:42.552Z,12.37
2019-02-23T05:05:10.670Z,12.63
2019-02-23T05:07:38.763Z,12.30
2019-02-23T05:10:07.686Z,12.43
2019-02-23T05:12:35.750Z,12.77
2019-02-23T05:15:04.271Z,13.07
2019-02-23T05:17:32.325Z,12.17
2019-02-23T05:20:00.388Z,12.40
2019-02-23T05:22:28.470Z,12.93
2019-02-23T05:24:56.543Z,11.97
2019-02-23T05:27:25.453Z,12.57
2019-02-23T05:29:53.651Z,11.53
2019-02-23T05:32:21.706Z,12.53
2019-02-23T05:34:49.758Z,12.33
2019-02-23T05:37:17.846Z,13.00
2019-02-23T05:39:45.895Z,34.20
2019-02-23T05:42:13.955Z,16.07
2019-02-23T05:44:42.006Z,12.77
2019-02-23T05:47:10.147Z,13.33
2019-02-23T05:49:38.239Z,12.30
2019-02-23T05:52:06.295Z,12.87
2019-02-23T05:54:34.422Z,13.27
2019-02-23T05:57:02.485Z,12.13
2019-02-23T05:59:30.529Z,12.60
2019-02-23T06:01:58.590Z,13.73
2019-02-23T06:04:26.643Z,13.93
2019-02-23T06:06:54.704Z,12.50
2019-02-23T06:09:22.758Z,13.00
2019-02-23T06:11:50.822Z,11.77
2019-02-23T06:14:18.899Z,12.90
2019-02-23T06:16:46.971Z,13.17
2019-02-23T06:19:15.043Z,13.53
2019-02-23T06:21:52.863Z,13.33
2019-02-23T06:24:12.887Z,12.83
2019-02-23T06:26:40.922Z,12.83
2019-02-23T06:29:09.017Z,12.30
2019-02-23T06:31:37.075Z,12.80
2019-02-23T06:34:15.602Z,12.90
2019-02-23T06:36:35.199Z,23.80
2019-02-23T06:39:04.193Z,13.30
2019-02-23T06:41:32.286Z,12.40
2019-02-23T06:44:00.342Z,12.10
2019-02-23T06:46:28.428Z,11.87
2019-02-23T06:48:57.249Z,12.60
2019-02-23T06:51:26.183Z,13.07
2019-02-23T06:53:54.310Z,14.67
2019-02-23T06:56:22.384Z,13.13
2019-02-23T06:58:50.450Z,12.50
2019-02-23T07:01:18.578Z,13.13
2019-02-23T07:03:46.639Z,12.20
2019-02-23T07:06:14.702Z,13.13
2019-02-23T07:08:42.758Z,13.50
2019-02-23T07:11:10.832Z,12.93
2019-02-23T07:13:38.899Z,13.20
2019-02-23T07:16:06.954Z,12.40
2019-02-23T07:18:35.018Z,12.50
2019-02-23T07:21:03.074Z,12.73
2019-02-23T07:23:31.126Z,12.67
2019-02-23T07:25:59.194Z,12.30
2019-02-23T07:28:27.247Z,12.50
2019-02-23T07:30:55.306Z,12.63
2019-02-23T07:33:32.450Z,11.87
2019-02-23T07:35:53.134Z,12.73
2019-02-23T07:38:21.218Z,11.63
2019-02-23T07:40:49.267Z,12.50
2019-02-23T07:43:17.317Z,15.77
2019-02-23T07:45:45.374Z,13.90
2019-02-23T07:48:13.429Z,13.33
2019-02-23T07:50:41.546Z,12.70
2019-02-23T07:53:09.621Z,11.97
2019-02-23T07:55:37.682Z,12.33
2019-02-23T07:58:05.831Z,12.87
2019-02-23T08:00:33.866Z,12.13
2019-02-23T08:03:01.911Z,11.47
2019-02-23T08:05:29.983Z,11.77
2019-02-23T08:07:58.035Z,11.80
2019-02-23T08:10:26.098Z,12.57
2019-02-23T08:12:54.159Z,12.40
2019-02-23T08:15:22.211Z,11.83
2019-02-23T08:17:50.254Z,11.67
2019-02-23T08:20:18.341Z,15.60
2019-02-23T08:22:46.495Z,13.27
2019-02-23T08:25:15.006Z,12.30
2019-02-23T08:27:43.086Z,12.00
2019-02-23T08:30:12.375Z,11.77
2019-02-23T08:32:40.429Z,10.83
2019-02-23T08:35:08.676Z,11.73
2019-02-23T08:37:36.722Z,12.10
2019-02-23T08:40:06.547Z,12.10
2019-02-23T08:42:34.681Z,11.23
2019-02-23T08:45:02.732Z,11.30
2019-02-23T08:47:30.799Z,11.30
2019-02-23T08:49:58.976Z,12.27
2019-02-23T08:52:27.023Z,18.10
2019-02-23T08:54:55.070Z,11.87
2019-02-23T08:57:23.134Z,11.60
2019-02-23T08:59:51.230Z,11.50
2019-02-23T09:02:19.293Z,11.80
2019-02-23T09:04:47.349Z,11.67
2019-02-23T09:07:15.409Z,11.30
2019-02-23T09:09:43.450Z,11.33
2019-02-23T09:12:11.530Z,11.33
2019-02-23T09:14:39.572Z,10.40
2019-02-23T09:17:07.645Z,10.67
2019-02-23T09:19:35.711Z,10.80
2019-02-23T09:22:03.759Z,10.97
2019-02-23T09:24:31.830Z,10.67
2019-02-23T09:26:59.884Z,11.30
2019-02-23T09:29:27.938Z,11.30
2019-02-23T09:31:56.002Z,11.47
2019-02-23T09:34:24.134Z,11.60
2019-02-23T09:36:52.228Z,11.27
2019-02-23T09:39:20.286Z,11.67
2019-02-23T09:41:48.334Z,11.53
2019-02-23T09:44:16.399Z,10.80
2019-02-23T09:46:44.445Z,11.50
2019-02-23T09:49:12.520Z,12.27
2019-02-23T09:51:41.498Z,10.47
2019-02-23T09:54:09.661Z,10.90
2019-02-23T09:56:37.727Z,10.33
2019-02-23T09:59:05.789Z,11.00
2019-02-23T10:01:33.843Z,11.07
2019-02-23T10:04:01.927Z,10.90
2019-02-23T10:06:29.995Z,10.47
2019-02-23T10:08:58.995Z,10.77
2019-02-23T10:11:27.053Z,10.97
2019-02-23T10:13:55.110Z,10.80
2019-02-23T10:16:23.185Z,10.57
2019-02-23T10:18:51.254Z,10.80
2019-02-23T10:21:19.319Z,10.80
2019-02-23T10:23:47.363Z,11.13
2019-02-23T10:26:15.410Z,10.80
2019-02-23T10:28:43.473Z,10.47
2019-02-23T10:31:11.522Z,10.27
2019-02-23T10:33:47.388Z,10.80
2019-02-23T10:36:09.365Z,10.50
2019-02-23T10:38:37.426Z,10.17
2019-02-23T10:41:05.477Z,10.40
2019-02-23T10:43:33.522Z,9.77
2019-02-23T10:46:01.584Z,10.63
2019-02-23T10:48:29.686Z,10.27
2019-02-23T10:50:57.830Z,10.43
2019-02-23T10:53:32.730Z,10.40
2019-02-23T10:55:55.658Z,10.77
2019-02-23T10:58:23.723Z,10.37
2019-02-23T11:00:51.766Z,10.60
2019-02-23T11:03:19.819Z,10.00
2019-02-23T11:05:47.914Z,9.83
2019-02-23T11:08:15.994Z,14.83
2019-02-23T11:10:44.038Z,10.33
2019-02-23T11:13:12.085Z,9.90
2019-02-23T11:15:40.149Z,10.47
2019-02-23T11:18:08.227Z,10.77
2019-02-23T11:20:36.751Z,10.10
2019-02-23T11:23:04.878Z,10.10
2019-02-23T11:25:32.947Z,9.73
2019-02-23T11:28:01.710Z,9.93
2019-02-23T11:30:29.902Z,10.30
2019-02-23T11:32:57.951Z,11.03
2019-02-23T11:35:25.999Z,9.97
2019-02-23T11:37:54.059Z,10.17
2019-02-23T11:40:23.522Z,10.53
2019-02-23T11:42:51.767Z,10.17
2019-02-23T11:45:19.814Z,11.13
2019-02-23T11:47:47.866Z,9.80
2019-02-23T11:50:15.933Z,10.63
2019-02-23T11:52:43.975Z,11.27
2019-02-23T11:55:12.126Z,10.97
2019-02-23T11:57:40.171Z,10.27
2019-02-23T12:00:09.795Z,11.40
2019-02-23T12:02:37.836Z,9.57
2019-02-23T12:05:06.050Z,10.60
2019-02-23T12:07:34.114Z,9.60
2019-02-23T12:10:02.179Z,10.63
2019-02-23T12:12:30.246Z,10.03
2019-02-23T12:14:58.294Z,10.77
2019-02-23T12:17:26.354Z,10.77
2019-02-23T12:19:55.373Z,10.57
2019-02-23T12:22:23.598Z,10.77
2019-02-23T12:24:51.685Z,10.53
2019-02-23T12:27:19.726Z,9.93
2019-02-23T12:29:48.401Z,9.67
2019-02-23T12:32:16.490Z,10.37
2019-02-23T12:34:44.542Z,11.63
2019-02-23T12:37:12.634Z,9.73
2019-02-23T12:39:40.730Z,10.60
2019-02-23T12:42:08.774Z,10.23
2019-02-23T12:44:37.010Z,10.17
2019-02-23T12:47:05.062Z,10.40
2019-02-23T12:49:33.102Z,10.27
2019-02-23T12:52:05.461Z,9.97
2019-02-23T12:54:33.530Z,10.33
2019-02-23T12:57:01.658Z,10.73
2019-02-23T12:59:29.718Z,10.53
2019-02-23T13:01:57.782Z,8.97
2019-02-23T13:04:25.930Z,9.43
2019-02-23T13:06:54.055Z,7.90
2019-02-23T13:09:23.615Z,6.80
2019-02-23T13:11:56.093Z,6.83
2019-02-23T13:14:34.762Z,7.90
2019-02-23T13:17:10.434Z,6.93
2019-02-23T13:19:56.394Z,7.10
2019-02-23T13:22:31.718Z,6.80
2019-02-23T13:25:10.314Z,6.73
2019-02-23T13:27:39.915Z,7.47
2019-02-23T13:30:12.546Z,7.90
2019-02-23T13:32:58.457Z,7.73
2019-02-23T13:35:44.286Z,6.70
2019-02-23T13:38:16.654Z,7.87
2019-02-23T13:41:02.703Z,7.30
2019-02-23T13:43:34.941Z,6.87
2019-02-23T13:46:16.343Z,7.67
2019-02-23T13:48:48.602Z,7.10
2019-02-23T13:51:18.818Z,7.00
2019-02-23T13:54:04.872Z,6.87
2019-02-23T13:56:40.492Z,8.30
2019-02-23T13:59:12.779Z,6.83
2019-02-23T14:01:59.140Z,7.30
2019-02-23T14:04:28.771Z,6.47
2019-02-23T14:06:58.354Z,6.10
2019-02-23T14:09:44.983Z,7.27
2019-02-23T14:12:27.578Z,6.93
2019-02-23T14:15:00.300Z,6.10
2019-02-23T14:17:35.926Z,6.97
2019-02-23T14:20:05.566Z,6.40
2019-02-23T14:22:35.174Z,6.27
2019-02-23T14:25:21.074Z,6.43
2019-02-23T14:27:59.658Z,6.10
2019-02-23T14:30:29.373Z,5.97
2019-02-23T14:33:15.238Z,6.67
2019-02-23T14:35:47.512Z,6.30
2019-02-23T14:38:23.002Z,6.17
2019-02-23T14:40:52.655Z,6.27
2019-02-23T14:43:28.156Z,5.90
2019-02-23T14:46:15.656Z,6.13
2019-02-23T14:48:51.252Z,6.37
2019-02-23T14:51:22.059Z,6.20
2019-02-23T14:53:51.925Z,6.20
2019-02-23T14:56:27.630Z,6.70
2019-02-23T14:58:57.221Z,6.00
2019-02-23T15:01:39.039Z,5.67
2019-02-23T15:04:17.616Z,5.93
2019-02-23T15:07:04.122Z,5.97
2019-02-23T15:09:39.587Z,7.57
2019-02-23T15:12:09.163Z,5.90
2019-02-23T15:14:38.778Z,6.10
2019-02-23T15:17:26.451Z,5.80
2019-02-23T15:20:01.780Z,6.10
2019-02-23T15:22:31.351Z,5.53
2019-02-23T15:25:18.981Z,5.93
2019-02-23T15:27:51.267Z,6.17
2019-02-23T15:30:23.740Z,6.03
2019-02-23T15:32:56.218Z,6.17
2019-02-23T15:35:28.689Z,5.77
2019-02-23T15:38:10.379Z,5.40
2019-02-23T15:40:46.197Z,7.10
2019-02-23T15:43:15.800Z,6.53
2019-02-23T15:46:00.262Z,6.10
2019-02-23T15:48:44.841Z,6.57
2019-02-23T15:51:13.705Z,6.37
2019-02-23T15:53:41.925Z,5.37
2019-02-23T15:56:10.051Z,6.00
2019-02-23T15:58:38.094Z,6.03
2019-02-23T16:01:06.161Z,5.73
2019-02-23T16:03:34.266Z,5.87
2019-02-23T16:06:02.322Z,5.73
2019-02-23T16:08:30.461Z,5.63
2019-02-23T16:10:58.518Z,5.67
2019-02-23T16:13:26.565Z,5.93
2019-02-23T16:15:54.606Z,6.03
2019-02-23T16:18:22.657Z,7.57
2019-02-23T16:20:50.723Z,7.40
2019-02-23T16:23:18.767Z,7.87
2019-02-23T16:25:46.823Z,9.67
2019-02-23T16:28:14.862Z,6.67
2019-02-23T16:30:42.907Z,6.03
2019-02-23T16:33:11.002Z,6.00
2019-02-23T16:35:39.142Z,5.93
2019-02-23T16:38:07.246Z,6.17
2019-02-23T16:40:35.291Z,6.00
2019-02-23T16:43:03.332Z,5.70
2019-02-23T16:45:31.399Z,7.53
2019-02-23T16:47:59.463Z,5.73
2019-02-23T16:50:27.531Z,6.10
2019-02-23T16:52:55.586Z,6.17
2019-02-23T16:55:23.663Z,7.23
2019-02-23T16:57:51.710Z,6.83
2019-02-23T17:00:19.822Z,6.13
2019-02-23T17:02:47.906Z,6.33
2019-02-23T17:05:15.977Z,6.43
2019-02-23T17:07:44.050Z,6.50
2019-02-23T17:10:12.169Z,6.53
2019-02-23T17:12:40.258Z,6.83
2019-02-23T17:15:10.601Z,7.17
2019-02-23T17:17:38.106Z,6.77
2019-02-23T17:20:06.194Z,6.17
2019-02-23T17:22:34.306Z,6.97
2019-02-23T17:25:02.364Z,6.67
2019-02-23T17:27:36.863Z,5.93
2019-02-23T17:30:00.532Z,6.60
2019-02-23T17:32:28.594Z,7.03
2019-02-23T17:34:56.663Z,7.33
2019-02-23T17:37:24.710Z,7.03
2019-02-23T17:39:53.649Z,6.33
2019-02-23T17:42:28.068Z,6.90
2019-02-23T17:44:51.541Z,6.00
2019-02-23T17:47:19.612Z,7.23
2019-02-23T17:49:47.863Z,6.60
2019-02-23T17:52:18.715Z,6.60
2019-02-23T17:54:46.766Z,6.53
2019-02-23T17:57:14.813Z,7.00
2019-02-23T17:59:42.858Z,7.07
2019-02-23T18:02:11.265Z,6.60
2019-02-23T18:04:39.729Z,7.60
2019-02-23T18:07:11.046Z,7.27
2019-02-23T18:09:39.134Z,14.40
2019-02-23T18:12:07.185Z,8.30
2019-02-23T18:14:35.398Z,7.00
2019-02-23T18:17:03.473Z,7.00
2019-02-23T18:19:31.523Z,7.57
2019-02-23T18:21:59.586Z,6.67
2019-02-23T18:24:27.643Z,7.70
2019-02-23T18:26:55.691Z,7.60
2019-02-23T18:29:23.756Z,7.63
2019-02-23T18:31:51.805Z,8.23
2019-02-23T18:34:19.861Z,8.40
2019-02-23T18:36:47.902Z,9.27
2019-02-23T18:39:17.669Z,8.60
2019-02-23T18:41:46.645Z,8.47
2019-02-23T18:44:14.747Z,8.40
2019-02-23T18:46:42.814Z,8.10
2019-02-23T18:49:10.860Z,8.30
2019-02-23T18:51:38.906Z,9.17
2019-02-23T18:54:07.032Z,8.57
2019-02-23T18:56:35.090Z,8.67
2019-02-23T18:59:03.140Z,8.37
2019-02-23T19:01:31.218Z,8.97
2019-02-23T19:03:59.255Z,8.63
2019-02-23T19:06:27.297Z,8.77
2019-02-23T19:08:55.361Z,8.47
2019-02-23T19:11:23.459Z,10.20
2019-02-23T19:13:51.554Z,9.43
2019-02-23T19:16:19.599Z,9.90
2019-02-23T19:18:47.673Z,9.70
2019-02-23T19:21:15.719Z,10.23
2019-02-23T19:23:43.765Z,8.63
2019-02-23T19:26:11.832Z,10.33
2019-02-23T19:28:43.189Z,9.20
2019-02-23T19:31:09.673Z,9.67
2019-02-23T19:33:37.738Z,9.23
2019-02-23T19:36:05.804Z,9.77
2019-02-23T19:38:33.855Z,10.17
2019-02-23T19:41:01.921Z,9.93
2019-02-23T19:43:29.989Z,9.50
2019-02-23T19:45:58.046Z,10.40
2019-02-23T19:48:26.126Z,9.47
2019-02-23T19:50:55.729Z,10.00
2019-02-23T19:53:23.818Z,10.10
2019-02-23T19:55:51.979Z,9.57
2019-02-23T19:58:20.030Z,10.13
2019-02-23T20:00:48.086Z,12.27
2019-02-23T20:03:16.165Z,11.13
2019-02-23T20:05:44.288Z,9.67
2019-02-23T20:08:12.340Z,9.57
2019-02-23T20:10:40.386Z,9.73
2019-02-23T20:13:08.452Z,10.00
2019-02-23T20:15:36.527Z,10.23
2019-02-23T20:18:05.881Z,8.83
2019-02-23T20:20:34.133Z,8.73
2019-02-23T20:23:02.214Z,10.07
2019-02-23T20:25:30.268Z,9.23
2019-02-23T20:27:58.333Z,10.10
2019-02-23T20:30:26.375Z,9.43
2019-02-23T20:32:54.451Z,9.57
2019-02-23T20:35:22.574Z,9.37
2019-02-23T20:37:50.675Z,8.90
2019-02-23T20:40:18.731Z,9.53
2019-02-23T20:42:46.818Z,8.47
2019-02-23T20:45:14.904Z,9.50
2019-02-23T20:47:43.097Z,10.43
2019-02-23T20:50:11.235Z,10.03
2019-02-23T20:52:39.298Z,9.00
2019-02-23T20:55:08.032Z,9.07
2019-02-23T20:57:36.094Z,8.80
2019-02-23T21:00:08.146Z,9.80
2019-02-23T21:02:36.280Z,9.20
2019-02-23T21:05:05.623Z,8.70
2019-02-23T21:07:33.697Z,9.13
2019-02-23T21:10:01.811Z,8.70
2019-02-23T21:12:29.874Z,9.30
2019-02-23T21:14:57.927Z,8.43
2019-02-23T21:17:26.043Z,9.13
2019-02-23T21:19:54.088Z,9.60
2019-02-23T21:22:22.130Z,8.67
2019-02-23T21:24:50.193Z,8.57
2019-02-23T21:27:18.244Z,8.77
2019-02-23T21:29:46.311Z,8.83
2019-02-23T21:32:14.402Z,8.67
2019-02-23T21:34:42.473Z,8.33
2019-02-23T21:37:10.535Z,8.03
2019-02-23T21:39:40.376Z,8.47
2019-02-23T21:42:08.362Z,8.00
2019-02-23T21:44:36.410Z,8.93
2019-02-23T21:47:04.487Z,8.50
2019-02-23T21:49:32.538Z,7.73
2019-02-23T21:52:04.897Z,8.30
2019-02-23T21:54:32.950Z,8.20
2019-02-23T21:57:01.002Z,8.67
2019-02-23T21:59:29.055Z,7.53
2019-02-23T22:01:57.122Z,8.47
2019-02-23T22:04:25.170Z,8.40
2019-02-23T22:06:53.226Z,8.37
2019-02-23T22:09:21.289Z,8.00
2019-02-23T22:11:49.339Z,8.40
2019-02-23T22:14:17.515Z,7.37
2019-02-23T22:16:45.580Z,8.23
2019-02-23T22:19:13.650Z,7.90
2019-02-23T22:21:41.699Z,7.10
2019-02-23T22:24:09.758Z,7.33
2019-02-23T22:26:37.848Z,8.17
2019-02-23T22:29:05.907Z,7.37
2019-02-23T22:31:53.359Z,8.47
2019-02-23T22:34:21.424Z,8.27
2019-02-23T22:36:49.478Z,7.50
2019-02-23T22:39:17.538Z,7.63
2019-02-23T22:41:49.643Z,8.10
2019-02-23T22:44:16.164Z,8.43
2019-02-23T22:46:44.329Z,7.33
2019-02-23T22:49:12.392Z,7.27
2019-02-23T22:51:44.571Z,7.97
2019-02-23T22:54:12.609Z,8.00
2019-02-23T22:56:40.670Z,8.57
2019-02-23T22:59:08.726Z,7.93
2019-02-23T23:01:36.779Z,8.17
2019-02-23T23:04:04.902Z,8.53
2019-02-23T23:06:32.950Z,8.17
2019-02-23T23:09:01.025Z,8.40
2019-02-23T23:11:29.078Z,8.63
2019-02-23T23:13:57.138Z,8.43
2019-02-23T23:16:25.186Z,8.33
2019-02-23T23:18:53.244Z,7.73
2019-02-23T23:21:21.314Z,7.97
2019-02-23T23:23:49.364Z,7.43
2019-02-23T23:26:17.429Z,8.30
2019-02-23T23:28:45.486Z,7.00
2019-02-23T23:31:13.542Z,7.47
2019-02-23T23:33:41.627Z,7.40
2019-02-23T23:36:09.674Z,7.00
2019-02-23T23:38:37.738Z,7.73
2019-02-23T23:41:05.807Z,7.60
2019-02-23T23:43:33.863Z,7.50
2019-02-23T23:46:01.915Z,7.40
2019-02-23T23:48:29.989Z,7.33
2019-02-23T23:50:58.130Z,7.20
2019-02-23T23:53:26.188Z,7.60
2019-02-23T23:55:54.246Z,7.30
2019-02-23T23:58:22.302Z,6.83
